Terminal Aerodrome Forecast
Issued by NWS

Home | Current Version | Previous Version | Text Only | Print | Product List | Glossary On
Versions: 1 2 3 4 5 6 7 8 9 10 11 12 13 14 15 16 17 18 19 20 21 22
424
FTUS43 KABR 140535
TAFATY
TAF
KATY 140535Z 1406/1506 16012G20KT 4SM -SN BR BLSN OVC011
     FM140800 16017G24KT 1/2SM -SN FZFG BLSN SCT010 OVC025
     FM141500 19007KT P6SM VCSH OVC008=

USA.gov is the U.S. government's official web portal to all federal, state and local government web resources and services.